sensor_id;sensor_type;location;lat;lon;timestamp;P1;durP1;ratioP1;P2;durP2;ratioP2
12177;SDS011;6152;48.728;9.256;2022-12-18T00:01:36;55.00;;;20.27;;
12177;SDS011;6152;48.728;9.256;2022-12-18T00:04:03;43.17;;;19.60;;
12177;SDS011;6152;48.728;9.256;2022-12-18T00:06:32;55.33;;;21.27;;
12177;SDS011;6152;48.728;9.256;2022-12-18T00:08:59;49.97;;;20.67;;
12177;SDS011;6152;48.728;9.256;2022-12-18T00:11:26;50.93;;;21.03;;
12177;SDS011;6152;48.728;9.256;2022-12-18T00:13:55;71.60;;;22.37;;
12177;SDS011;6152;48.728;9.256;2022-12-18T00:16:23;49.13;;;21.40;;
12177;SDS011;6152;48.728;9.256;2022-12-18T00:18:52;53.60;;;22.10;;
12177;SDS011;6152;48.728;9.256;2022-12-18T00:21:20;54.43;;;22.43;;
12177;SDS011;6152;48.728;9.256;2022-12-18T00:23:46;55.43;;;21.70;;
12177;SDS011;6152;48.728;9.256;2022-12-18T00:26:15;55.93;;;21.07;;
12177;SDS011;6152;48.728;9.256;2022-12-18T00:28:48;58.27;;;22.97;;
12177;SDS011;6152;48.728;9.256;2022-12-18T00:31:17;53.40;;;21.83;;
12177;SDS011;6152;48.728;9.256;2022-12-18T00:33:46;56.30;;;23.60;;
12177;SDS011;6152;48.728;9.256;2022-12-18T00:36:16;55.37;;;21.53;;
12177;SDS011;6152;48.728;9.256;2022-12-18T00:38:44;59.87;;;21.87;;
12177;SDS011;6152;48.728;9.256;2022-12-18T00:41:12;73.40;;;23.23;;
12177;SDS011;6152;48.728;9.256;2022-12-18T00:43:59;56.83;;;21.47;;
12177;SDS011;6152;48.728;9.256;2022-12-18T00:46:26;62.07;;;23.40;;
12177;SDS011;6152;48.728;9.256;2022-12-18T00:48:52;55.80;;;22.97;;
12177;SDS011;6152;48.728;9.256;2022-12-18T00:51:19;54.80;;;21.50;;
12177;SDS011;6152;48.728;9.256;2022-12-18T00:53:45;54.93;;;21.10;;
12177;SDS011;6152;48.728;9.256;2022-12-18T00:56:11;73.43;;;23.20;;
12177;SDS011;6152;48.728;9.256;2022-12-18T00:58:37;54.10;;;19.07;;
12177;SDS011;6152;48.728;9.256;2022-12-18T01:01:04;64.60;;;19.93;;
12177;SDS011;6152;48.728;9.256;2022-12-18T01:03:31;58.00;;;19.17;;
12177;SDS011;6152;48.728;9.256;2022-12-18T01:05:57;47.57;;;18.40;;
12177;SDS011;6152;48.728;9.256;2022-12-18T01:08:23;48.83;;;19.20;;
12177;SDS011;6152;48.728;9.256;2022-12-18T01:10:49;71.70;;;19.20;;
12177;SDS011;6152;48.728;9.256;2022-12-18T01:13:16;49.30;;;18.73;;
12177;SDS011;6152;48.728;9.256;2022-12-18T01:15:51;59.63;;;19.63;;
12177;SDS011;6152;48.728;9.256;2022-12-18T01:18:17;46.27;;;19.60;;
12177;SDS011;6152;48.728;9.256;2022-12-18T01:20:43;57.57;;;19.93;;
12177;SDS011;6152;48.728;9.256;2022-12-18T01:23:09;54.37;;;21.07;;
12177;SDS011;6152;48.728;9.256;2022-12-18T01:25:35;69.73;;;19.90;;
12177;SDS011;6152;48.728;9.256;2022-12-18T01:28:02;86.77;;;23.43;;
12177;SDS011;6152;48.728;9.256;2022-12-18T01:30:28;48.97;;;20.27;;
12177;SDS011;6152;48.728;9.256;2022-12-18T01:32:54;64.73;;;19.87;;
12177;SDS011;6152;48.728;9.256;2022-12-18T01:35:20;40.03;;;18.77;;
12177;SDS011;6152;48.728;9.256;2022-12-18T01:37:47;48.97;;;18.53;;
12177;SDS011;6152;48.728;9.256;2022-12-18T01:40:13;42.00;;;17.97;;
12177;SDS011;6152;48.728;9.256;2022-12-18T01:42:39;46.17;;;19.87;;
12177;SDS011;6152;48.728;9.256;2022-12-18T01:52:57;47.73;;;18.93;;
12177;SDS011;6152;48.728;9.256;2022-12-18T01:55:37;39.03;;;17.70;;
12177;SDS011;6152;48.728;9.256;2022-12-18T01:58:17;40.63;;;18.33;;
12177;SDS011;6152;48.728;9.256;2022-12-18T02:00:45;42.03;;;17.47;;
12177;SDS011;6152;48.728;9.256;2022-12-18T02:03:11;37.80;;;17.97;;
12177;SDS011;6152;48.728;9.256;2022-12-18T02:05:45;37.83;;;17.03;;
12177;SDS011;6152;48.728;9.256;2022-12-18T02:08:22;42.33;;;17.50;;
12177;SDS011;6152;48.728;9.256;2022-12-18T02:11:18;37.97;;;15.90;;
12177;SDS011;6152;48.728;9.256;2022-12-18T02:14:32;34.40;;;15.97;;
12177;SDS011;6152;48.728;9.256;2022-12-18T02:17:09;37.50;;;16.63;;
12177;SDS011;6152;48.728;9.256;2022-12-18T02:20:09;37.40;;;17.40;;
12177;SDS011;6152;48.728;9.256;2022-12-18T02:28:15;40.57;;;18.03;;
12177;SDS011;6152;48.728;9.256;2022-12-18T02:30:45;43.90;;;17.47;;
12177;SDS011;6152;48.728;9.256;2022-12-18T02:36:40;42.53;;;17.20;;
12177;SDS011;6152;48.728;9.256;2022-12-18T02:39:09;40.50;;;17.20;;
12177;SDS011;6152;48.728;9.256;2022-12-18T02:41:38;41.70;;;18.33;;
12177;SDS011;6152;48.728;9.256;2022-12-18T02:44:08;38.13;;;18.33;;
12177;SDS011;6152;48.728;9.256;2022-12-18T02:46:37;38.73;;;16.53;;
12177;SDS011;6152;48.728;9.256;2022-12-18T02:57:04;43.93;;;18.97;;
12177;SDS011;6152;48.728;9.256;2022-12-18T02:59:52;39.13;;;18.67;;
12177;SDS011;6152;48.728;9.256;2022-12-18T03:02:29;44.60;;;18.13;;
12177;SDS011;6152;48.728;9.256;2022-12-18T03:05:07;38.43;;;16.87;;
12177;SDS011;6152;48.728;9.256;2022-12-18T03:07:42;34.70;;;15.93;;
12177;SDS011;6152;48.728;9.256;2022-12-18T03:10:14;37.17;;;17.43;;
12177;SDS011;6152;48.728;9.256;2022-12-18T03:12:48;37.83;;;16.53;;
12177;SDS011;6152;48.728;9.256;2022-12-18T03:15:21;38.00;;;17.10;;
12177;SDS011;6152;48.728;9.256;2022-12-18T03:17:52;39.80;;;17.80;;
12177;SDS011;6152;48.728;9.256;2022-12-18T03:20:24;38.93;;;17.53;;
12177;SDS011;6152;48.728;9.256;2022-12-18T03:22:55;36.17;;;16.63;;
12177;SDS011;6152;48.728;9.256;2022-12-18T03:25:32;39.33;;;16.60;;
12177;SDS011;6152;48.728;9.256;2022-12-18T03:28:01;35.63;;;16.63;;
12177;SDS011;6152;48.728;9.256;2022-12-18T03:30:30;39.97;;;17.20;;
12177;SDS011;6152;48.728;9.256;2022-12-18T03:33:05;40.80;;;17.23;;
12177;SDS011;6152;48.728;9.256;2022-12-18T03:35:40;37.87;;;15.73;;
12177;SDS011;6152;48.728;9.256;2022-12-18T03:38:08;36.27;;;16.33;;
12177;SDS011;6152;48.728;9.256;2022-12-18T03:40:41;39.37;;;17.03;;
12177;SDS011;6152;48.728;9.256;2022-12-18T03:45:54;39.37;;;15.80;;
12177;SDS011;6152;48.728;9.256;2022-12-18T03:48:41;35.17;;;16.73;;
12177;SDS011;6152;48.728;9.256;2022-12-18T03:51:16;38.07;;;16.23;;
12177;SDS011;6152;48.728;9.256;2022-12-18T03:53:58;38.77;;;17.60;;
12177;SDS011;6152;48.728;9.256;2022-12-18T03:56:29;41.63;;;16.70;;
12177;SDS011;6152;48.728;9.256;2022-12-18T03:59:01;39.17;;;18.17;;
12177;SDS011;6152;48.728;9.256;2022-12-18T04:01:38;36.43;;;17.10;;
12177;SDS011;6152;48.728;9.256;2022-12-18T04:04:08;34.00;;;15.80;;
12177;SDS011;6152;48.728;9.256;2022-12-18T04:06:35;44.10;;;17.53;;
12177;SDS011;6152;48.728;9.256;2022-12-18T04:09:02;37.33;;;17.30;;
12177;SDS011;6152;48.728;9.256;2022-12-18T04:11:30;39.73;;;17.43;;
12177;SDS011;6152;48.728;9.256;2022-12-18T04:13:56;41.17;;;16.67;;
12177;SDS011;6152;48.728;9.256;2022-12-18T04:16:24;40.97;;;16.50;;
12177;SDS011;6152;48.728;9.256;2022-12-18T04:18:51;36.60;;;17.10;;
12177;SDS011;6152;48.728;9.256;2022-12-18T04:21:18;42.33;;;17.53;;
12177;SDS011;6152;48.728;9.256;2022-12-18T04:23:45;41.33;;;17.40;;
12177;SDS011;6152;48.728;9.256;2022-12-18T04:26:11;42.40;;;17.07;;
12177;SDS011;6152;48.728;9.256;2022-12-18T04:28:37;47.47;;;17.27;;
12177;SDS011;6152;48.728;9.256;2022-12-18T04:31:03;40.13;;;17.63;;
12177;SDS011;6152;48.728;9.256;2022-12-18T04:33:30;37.27;;;16.10;;
12177;SDS011;6152;48.728;9.256;2022-12-18T04:35:56;35.83;;;16.70;;
12177;SDS011;6152;48.728;9.256;2022-12-18T04:38:22;34.67;;;15.07;;
12177;SDS011;6152;48.728;9.256;2022-12-18T04:40:48;39.63;;;17.00;;
12177;SDS011;6152;48.728;9.256;2022-12-18T04:43:14;32.90;;;14.40;;
12177;SDS011;6152;48.728;9.256;2022-12-18T04:45:40;33.27;;;13.53;;
12177;SDS011;6152;48.728;9.256;2022-12-18T04:48:06;31.77;;;14.20;;
12177;SDS011;6152;48.728;9.256;2022-12-18T04:50:32;30.60;;;13.60;;
12177;SDS011;6152;48.728;9.256;2022-12-18T04:52:58;26.37;;;12.23;;
12177;SDS011;6152;48.728;9.256;2022-12-18T04:55:25;27.30;;;12.47;;
12177;SDS011;6152;48.728;9.256;2022-12-18T04:57:51;36.47;;;13.20;;
12177;SDS011;6152;48.728;9.256;2022-12-18T05:00:18;29.33;;;12.67;;
12177;SDS011;6152;48.728;9.256;2022-12-18T05:02:44;33.60;;;12.43;;
12177;SDS011;6152;48.728;9.256;2022-12-18T05:05:10;32.27;;;14.17;;
12177;SDS011;6152;48.728;9.256;2022-12-18T05:07:36;35.10;;;12.97;;
12177;SDS011;6152;48.728;9.256;2022-12-18T05:10:02;29.03;;;13.40;;
12177;SDS011;6152;48.728;9.256;2022-12-18T05:12:32;24.73;;;13.30;;
12177;SDS011;6152;48.728;9.256;2022-12-18T05:14:58;33.77;;;13.13;;
12177;SDS011;6152;48.728;9.256;2022-12-18T05:17:24;32.73;;;13.43;;
12177;SDS011;6152;48.728;9.256;2022-12-18T05:19:50;32.43;;;13.20;;
12177;SDS011;6152;48.728;9.256;2022-12-18T05:22:17;27.27;;;13.23;;
12177;SDS011;6152;48.728;9.256;2022-12-18T05:24:43;35.57;;;13.37;;
12177;SDS011;6152;48.728;9.256;2022-12-18T05:27:09;33.53;;;12.93;;
12177;SDS011;6152;48.728;9.256;2022-12-18T05:29:35;28.03;;;13.07;;
12177;SDS011;6152;48.728;9.256;2022-12-18T05:32:01;30.00;;;13.20;;
12177;SDS011;6152;48.728;9.256;2022-12-18T05:34:27;31.17;;;13.07;;
12177;SDS011;6152;48.728;9.256;2022-12-18T05:36:53;35.60;;;14.03;;
12177;SDS011;6152;48.728;9.256;2022-12-18T05:39:19;29.80;;;13.17;;
12177;SDS011;6152;48.728;9.256;2022-12-18T05:41:45;32.23;;;12.20;;
12177;SDS011;6152;48.728;9.256;2022-12-18T05:44:11;27.83;;;12.63;;
12177;SDS011;6152;48.728;9.256;2022-12-18T05:46:38;28.57;;;13.67;;
12177;SDS011;6152;48.728;9.256;2022-12-18T05:49:07;28.67;;;12.33;;
12177;SDS011;6152;48.728;9.256;2022-12-18T05:51:34;31.27;;;13.60;;
12177;SDS011;6152;48.728;9.256;2022-12-18T05:54:00;29.87;;;13.10;;
12177;SDS011;6152;48.728;9.256;2022-12-18T05:56:26;31.63;;;13.77;;
12177;SDS011;6152;48.728;9.256;2022-12-18T05:58:52;33.60;;;13.20;;
12177;SDS011;6152;48.728;9.256;2022-12-18T06:01:20;26.67;;;12.97;;
12177;SDS011;6152;48.728;9.256;2022-12-18T06:03:49;31.77;;;13.03;;
12177;SDS011;6152;48.728;9.256;2022-12-18T06:06:19;28.60;;;12.37;;
12177;SDS011;6152;48.728;9.256;2022-12-18T06:08:50;29.37;;;12.73;;
12177;SDS011;6152;48.728;9.256;2022-12-18T06:11:18;26.80;;;12.30;;
12177;SDS011;6152;48.728;9.256;2022-12-18T06:13:46;26.80;;;12.20;;
12177;SDS011;6152;48.728;9.256;2022-12-18T06:16:16;27.80;;;12.87;;
12177;SDS011;6152;48.728;9.256;2022-12-18T06:18:42;36.50;;;14.53;;
12177;SDS011;6152;48.728;9.256;2022-12-18T06:21:08;29.43;;;11.90;;
12177;SDS011;6152;48.728;9.256;2022-12-18T06:23:35;26.17;;;12.57;;
12177;SDS011;6152;48.728;9.256;2022-12-18T06:26:08;29.83;;;13.87;;
12177;SDS011;6152;48.728;9.256;2022-12-18T06:28:36;35.13;;;13.67;;
12177;SDS011;6152;48.728;9.256;2022-12-18T06:31:02;30.17;;;11.97;;
12177;SDS011;6152;48.728;9.256;2022-12-18T06:33:29;27.73;;;12.93;;
12177;SDS011;6152;48.728;9.256;2022-12-18T06:36:17;30.17;;;14.00;;
12177;SDS011;6152;48.728;9.256;2022-12-18T06:38:43;34.17;;;14.00;;
12177;SDS011;6152;48.728;9.256;2022-12-18T06:41:10;23.83;;;12.83;;
12177;SDS011;6152;48.728;9.256;2022-12-18T06:43:40;30.17;;;13.43;;
12177;SDS011;6152;48.728;9.256;2022-12-18T06:46:07;30.73;;;14.57;;
12177;SDS011;6152;48.728;9.256;2022-12-18T06:48:34;30.10;;;13.90;;
12177;SDS011;6152;48.728;9.256;2022-12-18T06:51:00;32.87;;;13.67;;
12177;SDS011;6152;48.728;9.256;2022-12-18T06:53:26;31.80;;;13.23;;
12177;SDS011;6152;48.728;9.256;2022-12-18T06:55:52;37.37;;;14.63;;
12177;SDS011;6152;48.728;9.256;2022-12-18T06:58:26;31.00;;;12.97;;
12177;SDS011;6152;48.728;9.256;2022-12-18T07:00:52;31.67;;;12.77;;
12177;SDS011;6152;48.728;9.256;2022-12-18T07:03:19;28.13;;;13.30;;
12177;SDS011;6152;48.728;9.256;2022-12-18T07:05:45;31.47;;;14.07;;
12177;SDS011;6152;48.728;9.256;2022-12-18T07:08:11;32.17;;;13.93;;
12177;SDS011;6152;48.728;9.256;2022-12-18T07:10:41;36.63;;;16.57;;
12177;SDS011;6152;48.728;9.256;2022-12-18T07:13:08;33.87;;;15.87;;
12177;SDS011;6152;48.728;9.256;2022-12-18T07:15:34;44.77;;;16.53;;
12177;SDS011;6152;48.728;9.256;2022-12-18T07:18:00;34.33;;;15.53;;
12177;SDS011;6152;48.728;9.256;2022-12-18T07:20:26;36.73;;;15.90;;
12177;SDS011;6152;48.728;9.256;2022-12-18T07:22:52;37.03;;;17.30;;
12177;SDS011;6152;48.728;9.256;2022-12-18T07:25:19;34.17;;;14.80;;
12177;SDS011;6152;48.728;9.256;2022-12-18T07:27:45;31.57;;;13.90;;
12177;SDS011;6152;48.728;9.256;2022-12-18T07:30:11;37.70;;;15.47;;
12177;SDS011;6152;48.728;9.256;2022-12-18T07:32:37;26.67;;;14.53;;
12177;SDS011;6152;48.728;9.256;2022-12-18T07:35:03;33.10;;;14.50;;
12177;SDS011;6152;48.728;9.256;2022-12-18T07:37:29;32.47;;;14.63;;
12177;SDS011;6152;48.728;9.256;2022-12-18T07:39:56;32.43;;;14.17;;
12177;SDS011;6152;48.728;9.256;2022-12-18T07:42:22;32.60;;;13.03;;
12177;SDS011;6152;48.728;9.256;2022-12-18T07:44:57;31.23;;;13.90;;
12177;SDS011;6152;48.728;9.256;2022-12-18T07:47:25;27.10;;;13.97;;
12177;SDS011;6152;48.728;9.256;2022-12-18T07:49:52;31.83;;;14.60;;
12177;SDS011;6152;48.728;9.256;2022-12-18T07:52:18;30.27;;;13.87;;
12177;SDS011;6152;48.728;9.256;2022-12-18T07:54:44;33.20;;;13.63;;
12177;SDS011;6152;48.728;9.256;2022-12-18T07:57:10;32.10;;;13.80;;
12177;SDS011;6152;48.728;9.256;2022-12-18T07:59:36;26.57;;;13.20;;
12177;SDS011;6152;48.728;9.256;2022-12-18T08:02:03;31.77;;;14.03;;
12177;SDS011;6152;48.728;9.256;2022-12-18T08:04:29;29.63;;;14.63;;
12177;SDS011;6152;48.728;9.256;2022-12-18T08:06:55;31.57;;;15.07;;
12177;SDS011;6152;48.728;9.256;2022-12-18T08:09:21;31.63;;;15.13;;
12177;SDS011;6152;48.728;9.256;2022-12-18T08:11:47;44.90;;;17.27;;
12177;SDS011;6152;48.728;9.256;2022-12-18T08:14:13;36.10;;;17.37;;
12177;SDS011;6152;48.728;9.256;2022-12-18T08:16:40;35.30;;;15.57;;
12177;SDS011;6152;48.728;9.256;2022-12-18T08:19:06;36.43;;;15.93;;
12177;SDS011;6152;48.728;9.256;2022-12-18T08:21:32;33.93;;;15.93;;
12177;SDS011;6152;48.728;9.256;2022-12-18T08:23:59;35.40;;;16.40;;
12177;SDS011;6152;48.728;9.256;2022-12-18T08:26:26;32.43;;;15.37;;
12177;SDS011;6152;48.728;9.256;2022-12-18T08:28:55;35.13;;;17.00;;
12177;SDS011;6152;48.728;9.256;2022-12-18T08:31:24;35.23;;;17.10;;
12177;SDS011;6152;48.728;9.256;2022-12-18T08:33:51;37.77;;;17.17;;
12177;SDS011;6152;48.728;9.256;2022-12-18T08:36:18;38.57;;;16.73;;
12177;SDS011;6152;48.728;9.256;2022-12-18T08:38:45;34.47;;;17.07;;
12177;SDS011;6152;48.728;9.256;2022-12-18T08:41:12;42.17;;;18.43;;
12177;SDS011;6152;48.728;9.256;2022-12-18T08:43:40;39.20;;;17.23;;
12177;SDS011;6152;48.728;9.256;2022-12-18T08:46:26;38.90;;;16.70;;
12177;SDS011;6152;48.728;9.256;2022-12-18T08:48:56;38.03;;;17.07;;
12177;SDS011;6152;48.728;9.256;2022-12-18T08:51:22;36.83;;;16.17;;
12177;SDS011;6152;48.728;9.256;2022-12-18T08:53:48;39.13;;;18.83;;
12177;SDS011;6152;48.728;9.256;2022-12-18T08:56:14;37.40;;;16.57;;
12177;SDS011;6152;48.728;9.256;2022-12-18T08:58:41;31.73;;;17.30;;
12177;SDS011;6152;48.728;9.256;2022-12-18T09:01:08;34.83;;;15.90;;
12177;SDS011;6152;48.728;9.256;2022-12-18T09:03:35;34.47;;;16.20;;
12177;SDS011;6152;48.728;9.256;2022-12-18T09:06:01;37.73;;;16.83;;
12177;SDS011;6152;48.728;9.256;2022-12-18T09:08:31;34.73;;;16.43;;
12177;SDS011;6152;48.728;9.256;2022-12-18T09:11:01;32.97;;;15.83;;
12177;SDS011;6152;48.728;9.256;2022-12-18T09:13:27;37.77;;;17.57;;
12177;SDS011;6152;48.728;9.256;2022-12-18T09:15:54;34.07;;;17.83;;
12177;SDS011;6152;48.728;9.256;2022-12-18T09:18:21;36.17;;;17.30;;
12177;SDS011;6152;48.728;9.256;2022-12-18T09:20:48;38.77;;;18.53;;
12177;SDS011;6152;48.728;9.256;2022-12-18T09:23:17;35.80;;;18.43;;
12177;SDS011;6152;48.728;9.256;2022-12-18T09:25:44;37.50;;;19.10;;
12177;SDS011;6152;48.728;9.256;2022-12-18T09:30:39;42.67;;;19.37;;
12177;SDS011;6152;48.728;9.256;2022-12-18T09:33:06;46.13;;;19.43;;
12177;SDS011;6152;48.728;9.256;2022-12-18T09:35:32;37.77;;;18.67;;
12177;SDS011;6152;48.728;9.256;2022-12-18T09:38:02;35.17;;;17.73;;
12177;SDS011;6152;48.728;9.256;2022-12-18T09:40:29;42.37;;;19.10;;
12177;SDS011;6152;48.728;9.256;2022-12-18T09:42:59;37.20;;;19.53;;
12177;SDS011;6152;48.728;9.256;2022-12-18T09:45:30;32.37;;;17.40;;
12177;SDS011;6152;48.728;9.256;2022-12-18T09:48:03;34.47;;;18.30;;
12177;SDS011;6152;48.728;9.256;2022-12-18T09:50:34;37.47;;;18.47;;
12177;SDS011;6152;48.728;9.256;2022-12-18T09:53:06;37.40;;;18.70;;
12177;SDS011;6152;48.728;9.256;2022-12-18T09:55:40;36.30;;;17.70;;
12177;SDS011;6152;48.728;9.256;2022-12-18T10:00:42;32.03;;;18.33;;
12177;SDS011;6152;48.728;9.256;2022-12-18T10:03:09;36.72;;;17.10;;
12177;SDS011;6152;48.728;9.256;2022-12-18T10:05:49;30.48;;;17.15;;
12177;SDS011;6152;48.728;9.256;2022-12-18T10:11:14;30.50;;;17.50;;
12177;SDS011;6152;48.728;9.256;2022-12-18T10:14:19;34.95;;;19.13;;
12177;SDS011;6152;48.728;9.256;2022-12-18T10:17:26;30.52;;;18.00;;
12177;SDS011;6152;48.728;9.256;2022-12-18T10:22:53;29.13;;;17.48;;
12177;SDS011;6152;48.728;9.256;2022-12-18T10:25:28;28.05;;;17.98;;
12177;SDS011;6152;48.728;9.256;2022-12-18T10:28:15;31.13;;;18.30;;
12177;SDS011;6152;48.728;9.256;2022-12-18T10:30:43;26.85;;;18.05;;
12177;SDS011;6152;48.728;9.256;2022-12-18T10:33:19;29.52;;;18.80;;
12177;SDS011;6152;48.728;9.256;2022-12-18T10:35:52;29.10;;;18.05;;
12177;SDS011;6152;48.728;9.256;2022-12-18T10:38:23;27.52;;;18.63;;
12177;SDS011;6152;48.728;9.256;2022-12-18T10:41:01;26.88;;;17.27;;
12177;SDS011;6152;48.728;9.256;2022-12-18T10:51:24;26.17;;;16.33;;
12177;SDS011;6152;48.728;9.256;2022-12-18T10:56:28;27.85;;;17.42;;
12177;SDS011;6152;48.728;9.256;2022-12-18T10:58:57;25.58;;;16.13;;
12177;SDS011;6152;48.728;9.256;2022-12-18T11:01:26;27.17;;;17.10;;
12177;SDS011;6152;48.728;9.256;2022-12-18T11:06:20;24.58;;;14.93;;
12177;SDS011;6152;48.728;9.256;2022-12-18T11:11:50;23.95;;;15.07;;
12177;SDS011;6152;48.728;9.256;2022-12-18T11:14:21;23.80;;;14.68;;
12177;SDS011;6152;48.728;9.256;2022-12-18T11:16:50;23.13;;;14.93;;
12177;SDS011;6152;48.728;9.256;2022-12-18T11:21:53;23.08;;;14.57;;
12177;SDS011;6152;48.728;9.256;2022-12-18T11:24:29;20.95;;;13.63;;
12177;SDS011;6152;48.728;9.256;2022-12-18T11:27:00;21.23;;;14.95;;
12177;SDS011;6152;48.728;9.256;2022-12-18T11:29:36;21.92;;;15.07;;
12177;SDS011;6152;48.728;9.256;2022-12-18T11:35:08;22.35;;;15.00;;
12177;SDS011;6152;48.728;9.256;2022-12-18T11:37:36;21.80;;;15.25;;
12177;SDS011;6152;48.728;9.256;2022-12-18T11:40:06;21.88;;;15.43;;
12177;SDS011;6152;48.728;9.256;2022-12-18T11:42:41;20.50;;;15.43;;
12177;SDS011;6152;48.728;9.256;2022-12-18T11:45:26;23.35;;;16.38;;
12177;SDS011;6152;48.728;9.256;2022-12-18T11:48:03;22.88;;;16.15;;
12177;SDS011;6152;48.728;9.256;2022-12-18T11:50:54;21.67;;;15.73;;
12177;SDS011;6152;48.728;9.256;2022-12-18T11:53:22;24.02;;;17.00;;
12177;SDS011;6152;48.728;9.256;2022-12-18T12:01:51;25.17;;;17.08;;
12177;SDS011;6152;48.728;9.256;2022-12-18T12:10:35;26.38;;;17.33;;
12177;SDS011;6152;48.728;9.256;2022-12-18T12:16:04;24.67;;;16.90;;
12177;SDS011;6152;48.728;9.256;2022-12-18T12:21:27;28.48;;;17.00;;
12177;SDS011;6152;48.728;9.256;2022-12-18T12:40:28;27.35;;;17.23;;
12177;SDS011;6152;48.728;9.256;2022-12-18T12:42:59;29.23;;;17.13;;
12177;SDS011;6152;48.728;9.256;2022-12-18T12:48:14;28.23;;;17.42;;
12177;SDS011;6152;48.728;9.256;2022-12-18T12:51:21;31.38;;;17.98;;
12177;SDS011;6152;48.728;9.256;2022-12-18T12:53:46;29.23;;;16.80;;
12177;SDS011;6152;48.728;9.256;2022-12-18T12:56:14;31.55;;;17.05;;
12177;SDS011;6152;48.728;9.256;2022-12-18T13:06:54;28.90;;;16.40;;
12177;SDS011;6152;48.728;9.256;2022-12-18T13:09:30;30.63;;;16.40;;
12177;SDS011;6152;48.728;9.256;2022-12-18T13:12:01;30.07;;;16.30;;
12177;SDS011;6152;48.728;9.256;2022-12-18T13:14:52;30.90;;;16.02;;
12177;SDS011;6152;48.728;9.256;2022-12-18T13:20:03;31.20;;;17.47;;
12177;SDS011;6152;48.728;9.256;2022-12-18T13:28:03;29.70;;;16.23;;
12177;SDS011;6152;48.728;9.256;2022-12-18T13:30:51;30.13;;;16.33;;
12177;SDS011;6152;48.728;9.256;2022-12-18T13:38:33;34.60;;;16.00;;
12177;SDS011;6152;48.728;9.256;2022-12-18T13:41:03;30.98;;;16.65;;
12177;SDS011;6152;48.728;9.256;2022-12-18T13:43:37;32.13;;;16.67;;
12177;SDS011;6152;48.728;9.256;2022-12-18T13:46:23;31.08;;;16.45;;
12177;SDS011;6152;48.728;9.256;2022-12-18T13:52:19;30.63;;;16.20;;
12177;SDS011;6152;48.728;9.256;2022-12-18T13:54:53;31.73;;;16.57;;
12177;SDS011;6152;48.728;9.256;2022-12-18T13:59:50;30.95;;;16.02;;
12177;SDS011;6152;48.728;9.256;2022-12-18T14:02:18;34.23;;;16.73;;
12177;SDS011;6152;48.728;9.256;2022-12-18T14:04:48;33.67;;;16.00;;
12177;SDS011;6152;48.728;9.256;2022-12-18T14:07:25;29.53;;;15.23;;
12177;SDS011;6152;48.728;9.256;2022-12-18T14:09:53;34.33;;;16.17;;
12177;SDS011;6152;48.728;9.256;2022-12-18T14:12:25;35.27;;;16.83;;
12177;SDS011;6152;48.728;9.256;2022-12-18T14:18:35;32.07;;;16.57;;
12177;SDS011;6152;48.728;9.256;2022-12-18T14:20:47;37.17;;;17.67;;
12177;SDS011;6152;48.728;9.256;2022-12-18T14:23:28;35.93;;;18.40;;
12177;SDS011;6152;48.728;9.256;2022-12-18T14:25:56;33.47;;;16.17;;
12177;SDS011;6152;48.728;9.256;2022-12-18T14:28:23;30.47;;;16.37;;
12177;SDS011;6152;48.728;9.256;2022-12-18T14:30:51;33.23;;;17.53;;
12177;SDS011;6152;48.728;9.256;2022-12-18T14:36:04;31.90;;;17.33;;
12177;SDS011;6152;48.728;9.256;2022-12-18T14:38:34;35.87;;;17.83;;
12177;SDS011;6152;48.728;9.256;2022-12-18T14:41:06;37.40;;;17.50;;
12177;SDS011;6152;48.728;9.256;2022-12-18T14:43:40;34.97;;;17.63;;
12177;SDS011;6152;48.728;9.256;2022-12-18T14:48:54;35.37;;;16.60;;
12177;SDS011;6152;48.728;9.256;2022-12-18T14:51:23;34.60;;;16.97;;
12177;SDS011;6152;48.728;9.256;2022-12-18T14:53:54;34.63;;;17.40;;
12177;SDS011;6152;48.728;9.256;2022-12-18T14:56:29;34.60;;;17.37;;
12177;SDS011;6152;48.728;9.256;2022-12-18T14:59:03;29.77;;;15.90;;
12177;SDS011;6152;48.728;9.256;2022-12-18T15:01:38;34.90;;;17.23;;
12177;SDS011;6152;48.728;9.256;2022-12-18T15:04:24;31.20;;;16.00;;
12177;SDS011;6152;48.728;9.256;2022-12-18T15:07:22;33.77;;;16.20;;
12177;SDS011;6152;48.728;9.256;2022-12-18T15:12:50;34.97;;;17.27;;
12177;SDS011;6152;48.728;9.256;2022-12-18T15:18:03;34.83;;;16.87;;
12177;SDS011;6152;48.728;9.256;2022-12-18T15:20:44;36.93;;;16.93;;
12177;SDS011;6152;48.728;9.256;2022-12-18T15:26:09;31.70;;;16.13;;
12177;SDS011;6152;48.728;9.256;2022-12-18T15:28:50;33.40;;;17.40;;
12177;SDS011;6152;48.728;9.256;2022-12-18T15:31:29;29.80;;;15.07;;
12177;SDS011;6152;48.728;9.256;2022-12-18T15:36:24;34.90;;;16.37;;
12177;SDS011;6152;48.728;9.256;2022-12-18T15:38:52;35.30;;;16.40;;
12177;SDS011;6152;48.728;9.256;2022-12-18T15:41:20;35.63;;;16.00;;
12177;SDS011;6152;48.728;9.256;2022-12-18T15:43:47;33.10;;;17.03;;
12177;SDS011;6152;48.728;9.256;2022-12-18T15:46:18;39.10;;;17.90;;
12177;SDS011;6152;48.728;9.256;2022-12-18T15:48:47;37.20;;;18.37;;
12177;SDS011;6152;48.728;9.256;2022-12-18T15:51:21;41.77;;;19.50;;
12177;SDS011;6152;48.728;9.256;2022-12-18T15:53:48;44.30;;;19.77;;
12177;SDS011;6152;48.728;9.256;2022-12-18T15:56:18;36.83;;;18.60;;
12177;SDS011;6152;48.728;9.256;2022-12-18T15:59:04;41.17;;;17.57;;
12177;SDS011;6152;48.728;9.256;2022-12-18T16:01:38;36.83;;;18.43;;
12177;SDS011;6152;48.728;9.256;2022-12-18T16:04:05;40.17;;;18.87;;
12177;SDS011;6152;48.728;9.256;2022-12-18T16:06:31;46.47;;;20.60;;
12177;SDS011;6152;48.728;9.256;2022-12-18T16:08:57;38.57;;;18.73;;
12177;SDS011;6152;48.728;9.256;2022-12-18T16:11:27;35.73;;;17.90;;
12177;SDS011;6152;48.728;9.256;2022-12-18T16:14:06;38.27;;;18.37;;
12177;SDS011;6152;48.728;9.256;2022-12-18T16:16:43;36.23;;;17.23;;
12177;SDS011;6152;48.728;9.256;2022-12-18T16:19:10;39.10;;;18.37;;
12177;SDS011;6152;48.728;9.256;2022-12-18T16:21:36;35.80;;;18.03;;
12177;SDS011;6152;48.728;9.256;2022-12-18T16:24:02;38.37;;;18.60;;
12177;SDS011;6152;48.728;9.256;2022-12-18T16:26:29;42.33;;;18.33;;
12177;SDS011;6152;48.728;9.256;2022-12-18T16:28:55;37.30;;;18.13;;
12177;SDS011;6152;48.728;9.256;2022-12-18T16:31:21;35.87;;;18.67;;
12177;SDS011;6152;48.728;9.256;2022-12-18T16:33:47;42.23;;;19.87;;
12177;SDS011;6152;48.728;9.256;2022-12-18T16:36:13;41.80;;;18.33;;
12177;SDS011;6152;48.728;9.256;2022-12-18T16:38:39;43.00;;;18.97;;
12177;SDS011;6152;48.728;9.256;2022-12-18T16:41:14;44.17;;;20.17;;
12177;SDS011;6152;48.728;9.256;2022-12-18T16:43:59;39.73;;;18.43;;
12177;SDS011;6152;48.728;9.256;2022-12-18T16:46:25;35.43;;;18.77;;
12177;SDS011;6152;48.728;9.256;2022-12-18T16:48:51;39.90;;;19.00;;
12177;SDS011;6152;48.728;9.256;2022-12-18T16:51:17;45.10;;;18.60;;
12177;SDS011;6152;48.728;9.256;2022-12-18T16:53:44;43.30;;;19.47;;
12177;SDS011;6152;48.728;9.256;2022-12-18T16:56:10;39.23;;;19.17;;
12177;SDS011;6152;48.728;9.256;2022-12-18T16:58:36;41.53;;;17.97;;
12177;SDS011;6152;48.728;9.256;2022-12-18T17:01:06;41.83;;;18.57;;
12177;SDS011;6152;48.728;9.256;2022-12-18T17:03:33;37.73;;;18.17;;
12177;SDS011;6152;48.728;9.256;2022-12-18T17:06:03;38.87;;;19.70;;
12177;SDS011;6152;48.728;9.256;2022-12-18T17:08:30;42.70;;;19.63;;
12177;SDS011;6152;48.728;9.256;2022-12-18T17:10:56;45.07;;;21.27;;
12177;SDS011;6152;48.728;9.256;2022-12-18T17:13:31;46.33;;;20.27;;
12177;SDS011;6152;48.728;9.256;2022-12-18T17:16:04;40.77;;;19.53;;